sensor_id;sensor_type;location;lat;lon;timestamp;pressure;altitude;pressure_sealevel;temperature;humidity
55373;BME280;41249;47.838;16.490;2023-01-29T00:01:43;100295.78;;;-1.02;80.06
55373;BME280;41249;47.838;16.490;2023-01-29T00:09:54;100294.88;;;-0.97;80.91
55373;BME280;41249;47.838;16.490;2023-01-29T00:12:21;100296.28;;;-1.00;81.12
55373;BME280;41249;47.838;16.490;2023-01-29T00:14:47;100299.50;;;-0.98;80.50
55373;BME280;41249;47.838;16.490;2023-01-29T00:17:14;100299.31;;;-1.01;80.55
55373;BME280;41249;47.838;16.490;2023-01-29T00:19:41;100302.31;;;-1.03;80.77
55373;BME280;41249;47.838;16.490;2023-01-29T00:22:07;100296.06;;;-1.03;80.55
55373;BME280;41249;47.838;16.490;2023-01-29T00:24:34;100296.75;;;-1.12;80.12
55373;BME280;41249;47.838;16.490;2023-01-29T00:27:00;100303.53;;;-1.28;79.48
55373;BME280;41249;47.838;16.490;2023-01-29T00:29:27;100293.28;;;-1.36;79.48
55373;BME280;41249;47.838;16.490;2023-01-29T00:34:35;100305.06;;;-1.40;79.86
55373;BME280;41249;47.838;16.490;2023-01-29T00:37:01;100301.25;;;-1.39;79.83
55373;BME280;41249;47.838;16.490;2023-01-29T00:39:30;100297.63;;;-1.35;79.98
55373;BME280;41249;47.838;16.490;2023-01-29T00:42:13;100296.00;;;-1.36;79.92
55373;BME280;41249;47.838;16.490;2023-01-29T00:44:58;100298.44;;;-1.34;79.44
55373;BME280;41249;47.838;16.490;2023-01-29T00:47:25;100301.19;;;-1.34;79.73
55373;BME280;41249;47.838;16.490;2023-01-29T00:50:06;100300.06;;;-1.33;79.61
55373;BME280;41249;47.838;16.490;2023-01-29T00:52:33;100307.50;;;-1.39;79.42
55373;BME280;41249;47.838;16.490;2023-01-29T00:55:03;100292.63;;;-1.46;78.91
55373;BME280;41249;47.838;16.490;2023-01-29T00:57:31;100271.53;;;-1.78;78.21
55373;BME280;41249;47.838;16.490;2023-01-29T00:59:58;100277.47;;;-1.95;78.23
55373;BME280;41249;47.838;16.490;2023-01-29T01:02:25;100292.03;;;-2.04;78.58
55373;BME280;41249;47.838;16.490;2023-01-29T01:05:11;100279.78;;;-2.30;77.90
55373;BME280;41249;47.838;16.490;2023-01-29T01:07:49;100279.22;;;-2.51;77.36
55373;BME280;41249;47.838;16.490;2023-01-29T01:10:22;100283.78;;;-2.47;77.91
55373;BME280;41249;47.838;16.490;2023-01-29T01:12:59;100294.16;;;-2.49;77.56
55373;BME280;41249;47.838;16.490;2023-01-29T01:15:29;100297.44;;;-2.52;77.88
55373;BME280;41249;47.838;16.490;2023-01-29T01:17:58;100289.75;;;-2.45;77.18
55373;BME280;41249;47.838;16.490;2023-01-29T01:20:27;100296.75;;;-2.38;77.55
55373;BME280;41249;47.838;16.490;2023-01-29T01:22:54;100307.09;;;-2.41;77.40
55373;BME280;41249;47.838;16.490;2023-01-29T01:25:22;100301.09;;;-2.38;77.52
55373;BME280;41249;47.838;16.490;2023-01-29T01:27:57;100296.81;;;-2.44;76.92
55373;BME280;41249;47.838;16.490;2023-01-29T01:30:24;100306.78;;;-2.34;77.44
55373;BME280;41249;47.838;16.490;2023-01-29T01:32:51;100301.50;;;-2.25;77.44
55373;BME280;41249;47.838;16.490;2023-01-29T01:35:17;100301.97;;;-2.18;77.50
55373;BME280;41249;47.838;16.490;2023-01-29T01:37:44;100306.38;;;-2.22;77.05
55373;BME280;41249;47.838;16.490;2023-01-29T01:40:14;100309.09;;;-2.22;77.51
55373;BME280;41249;47.838;16.490;2023-01-29T01:42:50;100313.44;;;-2.21;77.90
55373;BME280;41249;47.838;16.490;2023-01-29T01:45:35;100316.09;;;-2.16;77.84
55373;BME280;41249;47.838;16.490;2023-01-29T01:56:12;100320.66;;;-2.12;78.08
55373;BME280;41249;47.838;16.490;2023-01-29T01:58:42;100311.28;;;-2.24;77.58
55373;BME280;41249;47.838;16.490;2023-01-29T02:01:12;100312.56;;;-2.17;77.84
55373;BME280;41249;47.838;16.490;2023-01-29T02:03:55;100321.50;;;-2.11;78.31
55373;BME280;41249;47.838;16.490;2023-01-29T02:06:42;100331.44;;;-2.02;78.49
55373;BME280;41249;47.838;16.490;2023-01-29T02:09:34;100320.19;;;-1.95;78.64
55373;BME280;41249;47.838;16.490;2023-01-29T02:12:10;100332.34;;;-1.88;78.48
55373;BME280;41249;47.838;16.490;2023-01-29T02:14:38;100336.66;;;-1.82;78.27
55373;BME280;41249;47.838;16.490;2023-01-29T02:17:08;100335.03;;;-1.83;78.44
55373;BME280;41249;47.838;16.490;2023-01-29T02:19:44;100339.66;;;-1.83;78.48
55373;BME280;41249;47.838;16.490;2023-01-29T02:28:15;100338.66;;;-1.68;79.31
55373;BME280;41249;47.838;16.490;2023-01-29T02:30:58;100338.38;;;-1.67;79.26
55373;BME280;41249;47.838;16.490;2023-01-29T02:33:38;100347.56;;;-1.63;78.94
55373;BME280;41249;47.838;16.490;2023-01-29T02:36:12;100349.41;;;-1.58;79.25
55373;BME280;41249;47.838;16.490;2023-01-29T02:39:20;100343.69;;;-1.57;79.40
55373;BME280;41249;47.838;16.490;2023-01-29T02:42:12;100346.94;;;-1.55;79.48
55373;BME280;41249;47.838;16.490;2023-01-29T02:44:48;100347.94;;;-1.51;79.52
55373;BME280;41249;47.838;16.490;2023-01-29T02:47:39;100351.22;;;-1.49;79.71
55373;BME280;41249;47.838;16.490;2023-01-29T02:50:16;100339.72;;;-1.46;80.15
55373;BME280;41249;47.838;16.490;2023-01-29T02:53:02;100344.59;;;-1.43;79.97
55373;BME280;41249;47.838;16.490;2023-01-29T03:01:07;100349.97;;;-1.38;80.02
55373;BME280;41249;47.838;16.490;2023-01-29T03:03:39;100356.75;;;-1.35;80.41
55373;BME280;41249;47.838;16.490;2023-01-29T03:08:58;100354.19;;;-1.27;80.36
55373;BME280;41249;47.838;16.490;2023-01-29T03:11:34;100361.22;;;-1.26;79.99
55373;BME280;41249;47.838;16.490;2023-01-29T03:14:06;100352.78;;;-1.24;80.00
55373;BME280;41249;47.838;16.490;2023-01-29T03:16:40;100358.22;;;-1.24;80.08
55373;BME280;41249;47.838;16.490;2023-01-29T03:19:22;100357.72;;;-1.26;80.16
55373;BME280;41249;47.838;16.490;2023-01-29T03:21:55;100357.47;;;-1.30;80.23
55373;BME280;41249;47.838;16.490;2023-01-29T03:24:31;100360.78;;;-1.33;80.45
55373;BME280;41249;47.838;16.490;2023-01-29T03:27:22;100366.59;;;-1.39;79.89
55373;BME280;41249;47.838;16.490;2023-01-29T03:30:10;100372.47;;;-1.51;79.53
55373;BME280;41249;47.838;16.490;2023-01-29T03:32:58;100375.53;;;-1.57;79.13
55373;BME280;41249;47.838;16.490;2023-01-29T03:35:27;100374.22;;;-1.60;79.52
55373;BME280;41249;47.838;16.490;2023-01-29T03:38:03;100362.50;;;-1.60;79.92
55373;BME280;41249;47.838;16.490;2023-01-29T03:40:41;100371.78;;;-1.61;80.04
55373;BME280;41249;47.838;16.490;2023-01-29T03:43:19;100374.56;;;-1.66;79.37
55373;BME280;41249;47.838;16.490;2023-01-29T03:46:53;100373.81;;;-1.72;78.71
55373;BME280;41249;47.838;16.490;2023-01-29T03:49:33;100378.75;;;-1.74;79.20
55373;BME280;41249;47.838;16.490;2023-01-29T03:52:14;100377.13;;;-1.75;79.77
55373;BME280;41249;47.838;16.490;2023-01-29T03:54:53;100382.03;;;-1.77;79.43
55373;BME280;41249;47.838;16.490;2023-01-29T03:57:27;100372.25;;;-1.78;79.39
55373;BME280;41249;47.838;16.490;2023-01-29T04:00:05;100369.06;;;-1.85;78.70
55373;BME280;41249;47.838;16.490;2023-01-29T04:02:43;100364.19;;;-1.88;78.91
55373;BME280;41249;47.838;16.490;2023-01-29T04:08:01;100353.03;;;-1.87;79.22
55373;BME280;41249;47.838;16.490;2023-01-29T04:10:31;100361.41;;;-1.83;79.30
55373;BME280;41249;47.838;16.490;2023-01-29T04:13:08;100348.56;;;-1.78;79.31
55373;BME280;41249;47.838;16.490;2023-01-29T04:15:42;100344.19;;;-1.73;79.47
55373;BME280;41249;47.838;16.490;2023-01-29T04:18:12;100340.03;;;-1.71;79.98
55373;BME280;41249;47.838;16.490;2023-01-29T04:20:38;100338.88;;;-1.65;80.51
55373;BME280;41249;47.838;16.490;2023-01-29T04:23:06;100338.81;;;-1.60;80.52
55373;BME280;41249;47.838;16.490;2023-01-29T04:25:46;100346.34;;;-1.52;80.56
55373;BME280;41249;47.838;16.490;2023-01-29T04:28:22;100330.81;;;-1.51;80.81
55373;BME280;41249;47.838;16.490;2023-01-29T04:30:55;100331.03;;;-1.48;81.24
55373;BME280;41249;47.838;16.490;2023-01-29T04:33:38;100332.66;;;-1.47;81.11
55373;BME280;41249;47.838;16.490;2023-01-29T04:41:49;100322.78;;;-1.43;81.35
55373;BME280;41249;47.838;16.490;2023-01-29T04:44:36;100324.28;;;-1.32;81.90
55373;BME280;41249;47.838;16.490;2023-01-29T04:50:06;100331.44;;;-1.17;82.27
55373;BME280;41249;47.838;16.490;2023-01-29T04:55:59;100330.03;;;-1.15;82.06
55373;BME280;41249;47.838;16.490;2023-01-29T04:58:34;100324.56;;;-1.15;82.09
55373;BME280;41249;47.838;16.490;2023-01-29T05:01:05;100324.06;;;-1.17;81.87
55373;BME280;41249;47.838;16.490;2023-01-29T05:03:35;100327.06;;;-1.18;82.20
55373;BME280;41249;47.838;16.490;2023-01-29T05:06:04;100332.25;;;-1.17;81.93
55373;BME280;41249;47.838;16.490;2023-01-29T05:08:32;100340.69;;;-1.18;82.24
55373;BME280;41249;47.838;16.490;2023-01-29T05:10:59;100334.44;;;-1.19;81.98
55373;BME280;41249;47.838;16.490;2023-01-29T05:13:28;100331.69;;;-1.19;82.30
55373;BME280;41249;47.838;16.490;2023-01-29T05:16:01;100345.56;;;-1.15;82.12
55373;BME280;41249;47.838;16.490;2023-01-29T05:18:31;100335.47;;;-1.15;81.93
55373;BME280;41249;47.838;16.490;2023-01-29T05:21:03;100337.22;;;-1.24;81.76
55373;BME280;41249;47.838;16.490;2023-01-29T05:23:31;100345.50;;;-1.29;80.44
55373;BME280;41249;47.838;16.490;2023-01-29T05:25:58;100341.66;;;-1.28;81.59
55373;BME280;41249;47.838;16.490;2023-01-29T05:28:24;100351.97;;;-1.25;81.85
55373;BME280;41249;47.838;16.490;2023-01-29T05:30:53;100352.78;;;-1.24;81.94
55373;BME280;41249;47.838;16.490;2023-01-29T05:33:26;100351.91;;;-1.20;82.13
55373;BME280;41249;47.838;16.490;2023-01-29T05:35:54;100345.50;;;-1.29;80.80
55373;BME280;41249;47.838;16.490;2023-01-29T05:38:21;100348.44;;;-1.44;80.87
55373;BME280;41249;47.838;16.490;2023-01-29T05:40:48;100336.22;;;-1.70;80.18
55373;BME280;41249;47.838;16.490;2023-01-29T05:43:20;100339.88;;;-1.80;80.52
55373;BME280;41249;47.838;16.490;2023-01-29T05:45:58;100348.94;;;-1.84;79.96
55373;BME280;41249;47.838;16.490;2023-01-29T05:48:26;100344.06;;;-1.87;80.21
55373;BME280;41249;47.838;16.490;2023-01-29T05:51:02;100332.09;;;-1.86;80.08
55373;BME280;41249;47.838;16.490;2023-01-29T05:53:29;100336.94;;;-1.83;80.10
55373;BME280;41249;47.838;16.490;2023-01-29T05:56:00;100334.06;;;-1.92;79.86
55373;BME280;41249;47.838;16.490;2023-01-29T05:58:29;100336.53;;;-1.95;79.93
55373;BME280;41249;47.838;16.490;2023-01-29T06:00:56;100332.72;;;-1.94;79.81
55373;BME280;41249;47.838;16.490;2023-01-29T06:03:22;100334.31;;;-1.93;79.85
55373;BME280;41249;47.838;16.490;2023-01-29T06:05:49;100335.50;;;-1.99;79.42
55373;BME280;41249;47.838;16.490;2023-01-29T06:08:15;100334.69;;;-2.00;79.39
55373;BME280;41249;47.838;16.490;2023-01-29T06:10:42;100329.47;;;-1.96;79.57
55373;BME280;41249;47.838;16.490;2023-01-29T06:13:08;100336.00;;;-1.97;79.31
55373;BME280;41249;47.838;16.490;2023-01-29T06:15:38;100342.03;;;-2.00;79.79
55373;BME280;41249;47.838;16.490;2023-01-29T06:18:06;100333.34;;;-2.02;79.38
55373;BME280;41249;47.838;16.490;2023-01-29T06:20:32;100329.00;;;-2.03;79.29
55373;BME280;41249;47.838;16.490;2023-01-29T06:22:59;100326.56;;;-2.05;79.52
55373;BME280;41249;47.838;16.490;2023-01-29T06:25:26;100327.44;;;-2.09;79.56
55373;BME280;41249;47.838;16.490;2023-01-29T06:27:52;100319.34;;;-2.14;79.51
55373;BME280;41249;47.838;16.490;2023-01-29T06:30:19;100312.25;;;-2.15;80.11
55373;BME280;41249;47.838;16.490;2023-01-29T06:32:45;100321.00;;;-2.18;80.12
55373;BME280;41249;47.838;16.490;2023-01-29T06:35:12;100328.94;;;-2.22;80.03
55373;BME280;41249;47.838;16.490;2023-01-29T06:37:39;100320.06;;;-2.32;79.49
55373;BME280;41249;47.838;16.490;2023-01-29T06:40:06;100321.25;;;-2.38;79.85
55373;BME280;41249;47.838;16.490;2023-01-29T06:42:35;100317.50;;;-2.48;79.76
55373;BME280;41249;47.838;16.490;2023-01-29T06:45:02;100317.78;;;-2.49;79.95
55373;BME280;41249;47.838;16.490;2023-01-29T06:47:29;100313.44;;;-2.50;79.92
55373;BME280;41249;47.838;16.490;2023-01-29T06:49:56;100325.22;;;-2.60;79.51
55373;BME280;41249;47.838;16.490;2023-01-29T06:52:22;100329.63;;;-2.64;79.47
55373;BME280;41249;47.838;16.490;2023-01-29T06:54:50;100331.00;;;-2.66;79.56
55373;BME280;41249;47.838;16.490;2023-01-29T06:57:17;100328.91;;;-2.74;79.08
55373;BME280;41249;47.838;16.490;2023-01-29T06:59:43;100332.78;;;-2.85;78.88
55373;BME280;41249;47.838;16.490;2023-01-29T07:02:12;100315.78;;;-2.96;78.80
55373;BME280;41249;47.838;16.490;2023-01-29T07:04:38;100318.25;;;-3.05;77.98
55373;BME280;41249;47.838;16.490;2023-01-29T07:07:07;100318.31;;;-3.10;78.61
55373;BME280;41249;47.838;16.490;2023-01-29T07:09:42;100319.97;;;-3.14;78.10
55373;BME280;41249;47.838;16.490;2023-01-29T07:12:09;100325.06;;;-3.07;78.44
55373;BME280;41249;47.838;16.490;2023-01-29T07:14:36;100319.09;;;-3.04;78.29
55373;BME280;41249;47.838;16.490;2023-01-29T07:17:03;100312.91;;;-3.15;78.89
55373;BME280;41249;47.838;16.490;2023-01-29T07:19:29;100320.53;;;-3.17;78.18
55373;BME280;41249;47.838;16.490;2023-01-29T07:21:56;100311.59;;;-3.22;77.96
55373;BME280;41249;47.838;16.490;2023-01-29T07:24:22;100316.53;;;-3.29;77.60
55373;BME280;41249;47.838;16.490;2023-01-29T07:26:49;100309.50;;;-3.35;77.13
55373;BME280;41249;47.838;16.490;2023-01-29T07:29:16;100309.22;;;-3.29;78.15
55373;BME280;41249;47.838;16.490;2023-01-29T07:31:42;100321.13;;;-3.25;78.23
55373;BME280;41249;47.838;16.490;2023-01-29T07:34:09;100316.56;;;-3.34;77.48
55373;BME280;41249;47.838;16.490;2023-01-29T07:36:36;100313.25;;;-3.26;77.76
55373;BME280;41249;47.838;16.490;2023-01-29T07:39:02;100323.56;;;-3.23;78.65
55373;BME280;41249;47.838;16.490;2023-01-29T07:41:29;100326.22;;;-3.13;79.32
55373;BME280;41249;47.838;16.490;2023-01-29T07:43:55;100330.19;;;-3.00;78.80
55373;BME280;41249;47.838;16.490;2023-01-29T07:46:22;100327.13;;;-2.89;79.22
55373;BME280;41249;47.838;16.490;2023-01-29T07:48:48;100323.13;;;-2.68;80.23
55373;BME280;41249;47.838;16.490;2023-01-29T07:51:15;100329.28;;;-2.57;80.06
55373;BME280;41249;47.838;16.490;2023-01-29T07:53:43;100319.34;;;-2.43;80.08
55373;BME280;41249;47.838;16.490;2023-01-29T07:56:10;100321.13;;;-2.28;80.68
55373;BME280;41249;47.838;16.490;2023-01-29T07:58:37;100318.22;;;-2.13;81.00
55373;BME280;41249;47.838;16.490;2023-01-29T08:01:07;100323.50;;;-1.98;81.14
55373;BME280;41249;47.838;16.490;2023-01-29T08:03:34;100323.69;;;-1.90;80.73
55373;BME280;41249;47.838;16.490;2023-01-29T08:06:02;100328.66;;;-1.97;79.89
55373;BME280;41249;47.838;16.490;2023-01-29T08:08:29;100316.97;;;-1.97;80.15
55373;BME280;41249;47.838;16.490;2023-01-29T08:10:56;100313.63;;;-1.89;79.78
55373;BME280;41249;47.838;16.490;2023-01-29T08:13:25;100315.75;;;-1.86;79.57
55373;BME280;41249;47.838;16.490;2023-01-29T08:15:52;100313.75;;;-1.81;81.21
55373;BME280;41249;47.838;16.490;2023-01-29T08:18:18;100313.75;;;-1.81;81.46
55373;BME280;41249;47.838;16.490;2023-01-29T08:20:45;100320.53;;;-1.78;81.98
55373;BME280;41249;47.838;16.490;2023-01-29T08:23:13;100315.69;;;-1.81;81.64
55373;BME280;41249;47.838;16.490;2023-01-29T08:25:40;100320.09;;;-1.85;81.58
55373;BME280;41249;47.838;16.490;2023-01-29T08:28:07;100321.19;;;-1.86;81.24
55373;BME280;41249;47.838;16.490;2023-01-29T08:30:34;100336.94;;;-1.83;81.63
55373;BME280;41249;47.838;16.490;2023-01-29T08:33:02;100332.03;;;-1.81;81.20
55373;BME280;41249;47.838;16.490;2023-01-29T08:35:29;100323.81;;;-1.76;81.42
55373;BME280;41249;47.838;16.490;2023-01-29T08:37:57;100325.28;;;-1.65;81.69
55373;BME280;41249;47.838;16.490;2023-01-29T08:40:26;100329.25;;;-1.57;81.53
55373;BME280;41249;47.838;16.490;2023-01-29T08:42:57;100323.50;;;-1.56;81.02
55373;BME280;41249;47.838;16.490;2023-01-29T08:45:27;100330.72;;;-1.65;80.06
55373;BME280;41249;47.838;16.490;2023-01-29T08:47:54;100338.94;;;-1.70;79.98
55373;BME280;41249;47.838;16.490;2023-01-29T08:50:20;100336.22;;;-1.70;80.34
55373;BME280;41249;47.838;16.490;2023-01-29T08:52:47;100343.00;;;-1.67;80.81
55373;BME280;41249;47.838;16.490;2023-01-29T08:55:13;100354.47;;;-1.70;80.13
55373;BME280;41249;47.838;16.490;2023-01-29T08:57:41;100351.47;;;-1.69;79.69
55373;BME280;41249;47.838;16.490;2023-01-29T09:00:08;100356.91;;;-1.69;79.50
55373;BME280;41249;47.838;16.490;2023-01-29T09:02:36;100358.50;;;-1.68;79.09
55373;BME280;41249;47.838;16.490;2023-01-29T09:05:03;100374.41;;;-1.75;79.28
55373;BME280;41249;47.838;16.490;2023-01-29T09:07:30;100373.47;;;-1.89;78.56
55373;BME280;41249;47.838;16.490;2023-01-29T09:09:57;100377.03;;;-1.89;78.65
55373;BME280;41249;47.838;16.490;2023-01-29T09:12:24;100388.00;;;-1.75;79.26
55373;BME280;41249;47.838;16.490;2023-01-29T09:17:29;100381.22;;;-1.54;79.07
55373;BME280;41249;47.838;16.490;2023-01-29T09:19:55;100390.13;;;-1.48;79.12
55373;BME280;41249;47.838;16.490;2023-01-29T09:22:22;100389.66;;;-1.32;79.30
55373;BME280;41249;47.838;16.490;2023-01-29T09:24:48;100385.69;;;-1.21;79.77
55373;BME280;41249;47.838;16.490;2023-01-29T09:27:15;100385.69;;;-1.21;78.96
55373;BME280;41249;47.838;16.490;2023-01-29T09:29:41;100386.19;;;-1.19;78.99
55373;BME280;41249;47.838;16.490;2023-01-29T09:32:08;100396.09;;;-1.04;80.01
55373;BME280;41249;47.838;16.490;2023-01-29T09:34:35;100393.44;;;-0.90;80.30
55373;BME280;41249;47.838;16.490;2023-01-29T09:37:01;100388.66;;;-0.80;79.93
55373;BME280;41249;47.838;16.490;2023-01-29T09:39:28;100396.28;;;-0.63;80.36
55373;BME280;41249;47.838;16.490;2023-01-29T09:42:14;100390.31;;;-0.47;80.47
55373;BME280;41249;47.838;16.490;2023-01-29T09:45:02;100406.63;;;-0.28;81.20
55373;BME280;41249;47.838;16.490;2023-01-29T09:47:32;100406.56;;;-0.09;80.95
55373;BME280;41249;47.838;16.490;2023-01-29T09:50:04;100400.84;;;0.06;81.31
55373;BME280;41249;47.838;16.490;2023-01-29T09:52:54;100410.94;;;0.19;81.44
55373;BME280;41249;47.838;16.490;2023-01-29T09:55:31;100408.94;;;0.25;81.58
55373;BME280;41249;47.838;16.490;2023-01-29T09:58:16;100407.66;;;0.36;82.26
55373;BME280;41249;47.838;16.490;2023-01-29T10:15:00;100398.41;;;0.04;81.43
55373;BME280;41249;47.838;16.490;2023-01-29T10:25:16;100396.69;;;0.22;81.66
55373;BME280;41249;47.838;16.490;2023-01-29T10:27:49;100388.63;;;0.31;81.56
55373;BME280;41249;47.838;16.490;2023-01-29T10:30:37;100409.66;;;0.44;83.94
55373;BME280;41249;47.838;16.490;2023-01-29T10:33:12;100393.31;;;1.42;86.87
55373;BME280;41249;47.838;16.490;2023-01-29T10:35:46;100394.00;;;1.48;85.69
55373;BME280;41249;47.838;16.490;2023-01-29T10:38:37;100383.47;;;1.64;86.51
55373;BME280;41249;47.838;16.490;2023-01-29T10:58:22;100366.94;;;0.75;82.01
55373;BME280;41249;47.838;16.490;2023-01-29T11:00:51;100361.88;;;0.68;82.20
55373;BME280;41249;47.838;16.490;2023-01-29T11:03:23;100359.66;;;0.57;80.62
55373;BME280;41249;47.838;16.490;2023-01-29T11:11:18;100351.34;;;0.62;82.13
55373;BME280;41249;47.838;16.490;2023-01-29T11:13:59;100346.28;;;0.69;82.21
55373;BME280;41249;47.838;16.490;2023-01-29T11:16:30;100346.66;;;0.76;82.18
55373;BME280;41249;47.838;16.490;2023-01-29T11:18:59;100336.34;;;0.87;82.02
55373;BME280;41249;47.838;16.490;2023-01-29T11:21:28;100324.91;;;0.98;82.68
55373;BME280;41249;47.838;16.490;2023-01-29T11:24:12;100336.38;;;1.09;82.77
55373;BME280;41249;47.838;16.490;2023-01-29T11:26:44;100328.75;;;1.19;82.29
55373;BME280;41249;47.838;16.490;2023-01-29T11:31:57;100321.81;;;1.35;82.07
55373;BME280;41249;47.838;16.490;2023-01-29T11:34:25;100323.59;;;1.40;82.08
55373;BME280;41249;47.838;16.490;2023-01-29T11:36:58;100323.63;;;1.48;81.75
55373;BME280;41249;47.838;16.490;2023-01-29T11:39:27;100311.44;;;1.55;81.85
55373;BME280;41249;47.838;16.490;2023-01-29T11:41:58;100309.06;;;1.62;82.17
55373;BME280;41249;47.838;16.490;2023-01-29T11:46:52;100283.63;;;1.61;81.33
55373;BME280;41249;47.838;16.490;2023-01-29T11:49:38;100292.03;;;1.65;81.38
55373;BME280;41249;47.838;16.490;2023-01-29T11:52:08;100277.84;;;1.63;80.92
55373;BME280;41249;47.838;16.490;2023-01-29T11:54:54;100279.91;;;1.57;80.46
55373;BME280;41249;47.838;16.490;2023-01-29T11:57:30;100272.66;;;1.53;80.08
55373;BME280;41249;47.838;16.490;2023-01-29T12:00:03;100277.00;;;1.54;79.89
55373;BME280;41249;47.838;16.490;2023-01-29T12:02:41;100273.63;;;1.57;80.03
55373;BME280;41249;47.838;16.490;2023-01-29T12:05:16;100286.56;;;1.65;80.74
55373;BME280;41249;47.838;16.490;2023-01-29T12:07:46;100265.97;;;1.67;80.43
55373;BME280;41249;47.838;16.490;2023-01-29T12:13:19;100251.53;;;1.84;80.19
55373;BME280;41249;47.838;16.490;2023-01-29T12:15:47;100252.38;;;1.93;80.47
55373;BME280;41249;47.838;16.490;2023-01-29T12:21:08;100235.03;;;2.23;83.01
55373;BME280;41249;47.838;16.490;2023-01-29T12:26:14;100235.09;;;2.40;82.92
55373;BME280;41249;47.838;16.490;2023-01-29T12:34:48;100215.25;;;2.60;81.83
55373;BME280;41249;47.838;16.490;2023-01-29T12:37:56;100209.16;;;2.72;81.88
55373;BME280;41249;47.838;16.490;2023-01-29T12:40:27;100208.66;;;2.78;82.04
55373;BME280;41249;47.838;16.490;2023-01-29T12:42:59;100210.06;;;3.02;84.03
55373;BME280;41249;47.838;16.490;2023-01-29T12:45:28;100204.66;;;3.48;83.81
55373;BME280;41249;47.838;16.490;2023-01-29T12:48:00;100201.16;;;4.06;83.89
55373;BME280;41249;47.838;16.490;2023-01-29T12:50:30;100199.81;;;4.33;84.11
55373;BME280;41249;47.838;16.490;2023-01-29T12:57:58;100202.91;;;4.93;84.23
55373;BME280;41249;47.838;16.490;2023-01-29T13:00:28;100200.53;;;5.24;83.17
55373;BME280;41249;47.838;16.490;2023-01-29T13:03:16;100188.50;;;5.41;82.64
55373;BME280;41249;47.838;16.490;2023-01-29T13:05:58;100179.66;;;5.48;82.65
55373;BME280;41249;47.838;16.490;2023-01-29T13:10:53;100175.06;;;5.40;83.07
55373;BME280;41249;47.838;16.490;2023-01-29T13:13:41;100170.03;;;5.42;83.48
55373;BME280;41249;47.838;16.490;2023-01-29T13:16:11;100169.22;;;5.41;83.33
55373;BME280;41249;47.838;16.490;2023-01-29T13:18:43;100169.78;;;5.34;84.10
55373;BME280;41249;47.838;16.490;2023-01-29T13:21:20;100166.31;;;5.25;84.31
55373;BME280;41249;47.838;16.490;2023-01-29T13:23:50;100179.50;;;5.20;84.36
55373;BME280;41249;47.838;16.490;2023-01-29T13:26:20;100171.44;;;5.15;84.58
55373;BME280;41249;47.838;16.490;2023-01-29T13:28:47;100168.84;;;5.18;84.99
55373;BME280;41249;47.838;16.490;2023-01-29T13:31:28;100172.41;;;4.98;84.05
55373;BME280;41249;47.838;16.490;2023-01-29T13:34:27;100170.31;;;4.62;82.88
55373;BME280;41249;47.838;16.490;2023-01-29T13:36:59;100164.25;;;4.36;83.41
55373;BME280;41249;47.838;16.490;2023-01-29T13:39:27;100166.97;;;4.16;83.47
55373;BME280;41249;47.838;16.490;2023-01-29T13:41:57;100163.41;;;3.94;83.14
55373;BME280;41249;47.838;16.490;2023-01-29T13:44:32;100170.94;;;3.77;83.29
55373;BME280;41249;47.838;16.490;2023-01-29T13:47:10;100163.25;;;3.62;82.95
55373;BME280;41249;47.838;16.490;2023-01-29T13:49:53;100165.09;;;3.49;82.57
55373;BME280;41249;47.838;16.490;2023-01-29T13:52:41;100161.28;;;3.33;82.53
55373;BME280;41249;47.838;16.490;2023-01-29T14:10:43;100151.88;;;2.70;82.54
55373;BME280;41249;47.838;16.490;2023-01-29T14:18:26;100157.72;;;2.52;81.92
55373;BME280;41249;47.838;16.490;2023-01-29T14:20:57;100155.13;;;2.47;82.12
55373;BME280;41249;47.838;16.490;2023-01-29T14:26:29;100156.44;;;2.32;81.77
55373;BME280;41249;47.838;16.490;2023-01-29T14:29:00;100148.53;;;2.22;81.50
55373;BME280;41249;47.838;16.490;2023-01-29T14:31:49;100144.97;;;2.13;81.16
55373;BME280;41249;47.838;16.490;2023-01-29T14:34:40;100156.41;;;2.06;80.89
55373;BME280;41249;47.838;16.490;2023-01-29T14:37:24;100150.59;;;1.99;80.55
55373;BME280;41249;47.838;16.490;2023-01-29T14:39:56;100158.78;;;1.91;80.83
55373;BME280;41249;47.838;16.490;2023-01-29T14:42:25;100159.59;;;1.83;81.03
55373;BME280;41249;47.838;16.490;2023-01-29T14:49:59;100149.69;;;1.56;80.58
55373;BME280;41249;47.838;16.490;2023-01-29T14:54:59;100155.41;;;1.37;80.33
55373;BME280;41249;47.838;16.490;2023-01-29T14:57:29;100158.44;;;1.27;80.00
55373;BME280;41249;47.838;16.490;2023-01-29T14:59:59;100153.53;;;1.16;79.71
55373;BME280;41249;47.838;16.490;2023-01-29T15:02:42;100153.84;;;1.06;79.84
55373;BME280;41249;47.838;16.490;2023-01-29T15:05:17;100162.09;;;0.92;79.14
55373;BME280;41249;47.838;16.490;2023-01-29T15:07:52;100156.03;;;0.81;79.72
55373;BME280;41249;47.838;16.490;2023-01-29T15:13:16;100167.97;;;0.63;79.99
55373;BME280;41249;47.838;16.490;2023-01-29T15:16:20;100166.63;;;0.52;79.57
55373;BME280;41249;47.838;16.490;2023-01-29T15:18:52;100164.63;;;0.44;79.15
55373;BME280;41249;47.838;16.490;2023-01-29T15:21:21;100159.41;;;0.34;79.15
55373;BME280;41249;47.838;16.490;2023-01-29T15:24:03;100157.72;;;0.25;79.69
55373;BME280;41249;47.838;16.490;2023-01-29T15:26:30;100162.31;;;0.15;79.32
55373;BME280;41249;47.838;16.490;2023-01-29T15:28:58;100160.78;;;0.09;79.52
55373;BME280;41249;47.838;16.490;2023-01-29T15:31:30;100159.91;;;0.00;79.64
55373;BME280;41249;47.838;16.490;2023-01-29T15:33:59;100160.63;;;-0.08;79.96
55373;BME280;41249;47.838;16.490;2023-01-29T15:36:30;100165.22;;;-0.17;79.57
55373;BME280;41249;47.838;16.490;2023-01-29T15:39:17;100170.34;;;-0.29;79.36
55373;BME280;41249;47.838;16.490;2023-01-29T15:41:44;100175.81;;;-0.43;78.94
55373;BME280;41249;47.838;16.490;2023-01-29T15:44:13;100173.72;;;-0.59;78.71